createdAt,value
2023-03-20T00:01:51.545Z,75.3
2023-03-20T00:04:39.403Z,65.2
2023-03-20T00:07:28.161Z,62.7
2023-03-20T00:10:16.312Z,55.4
2023-03-20T00:13:05.550Z,62.2
2023-03-20T00:15:58.042Z,63.3
2023-03-20T00:18:45.710Z,67.2
2023-03-20T00:21:33.596Z,57.4
2023-03-20T00:24:21.425Z,50
2023-03-20T00:27:10.106Z,57.7
2023-03-20T00:30:00.422Z,55.6
2023-03-20T00:32:49.492Z,51.2
2023-03-20T00:35:38.347Z,52
2023-03-20T00:38:27.335Z,58
2023-03-20T00:41:14.939Z,59.8
2023-03-20T00:44:09.013Z,50.9
2023-03-20T00:47:06.578Z,54.1
2023-03-20T00:50:00.648Z,54.1
2023-03-20T00:52:52.535Z,54.2
2023-03-20T00:55:41.094Z,53.1
2023-03-20T00:58:29.413Z,50.7
2023-03-20T01:01:17.420Z,47.4
2023-03-20T01:04:05.105Z,53
2023-03-20T01:06:56.956Z,46.4
2023-03-20T01:09:44.544Z,50
2023-03-20T01:12:32.339Z,48.2
2023-03-20T01:15:20.053Z,49.9
2023-03-20T01:18:12.774Z,49.3
2023-03-20T01:21:01.535Z,44.2
2023-03-20T01:23:49.399Z,49.3
2023-03-20T01:26:36.889Z,45.7
2023-03-20T01:29:27.359Z,54.4
2023-03-20T01:32:16.276Z,50.7
2023-03-20T01:35:05.178Z,47.1
2023-03-20T01:37:53.644Z,52
2023-03-20T01:40:42.523Z,48.7
2023-03-20T01:43:39.672Z,52.2
2023-03-20T01:46:29.367Z,47.7
2023-03-20T01:49:17.988Z,48.4
2023-03-20T01:53:08.905Z,49.1
2023-03-20T01:56:01.537Z,46.4
2023-03-20T01:58:49.981Z,51.4
2023-03-20T02:01:43.340Z,53.6
2023-03-20T02:04:31.345Z,51.9
2023-03-20T02:07:22.215Z,56.3
2023-03-20T02:10:10.602Z,51.2
2023-03-20T02:13:01.579Z,53.6
2023-03-20T02:15:50.281Z,52.9
2023-03-20T02:18:43.529Z,50.6
2023-03-20T02:21:33.678Z,54.2
2023-03-20T02:24:47.965Z,50.1
2023-03-20T02:28:13.878Z,50.8
2023-03-20T02:31:27.308Z,54.8
2023-03-20T02:34:57.766Z,56.1
2023-03-20T02:38:17.269Z,52.3
2023-03-20T02:41:17.875Z,67.2
2023-03-20T02:44:10.768Z,67.6
2023-03-20T02:47:06.462Z,68.3
2023-03-20T02:49:58.558Z,70.8
2023-03-20T02:52:57.283Z,64.6
2023-03-20T02:55:59.270Z,61
2023-03-20T02:58:57.308Z,70.5
2023-03-20T03:01:53.134Z,62.1
2023-03-20T03:04:49.316Z,60
2023-03-20T03:07:40.338Z,63.2
2023-03-20T03:10:34.590Z,64.2
2023-03-20T03:13:27.373Z,69.4
2023-03-20T03:16:18.660Z,57.1
2023-03-20T03:19:11.105Z,61.7
2023-03-20T03:22:04.596Z,57.7
2023-03-20T03:24:52.740Z,56.2
2023-03-20T03:27:41.027Z,55.6
2023-03-20T03:30:32.709Z,60
2023-03-20T03:33:25.106Z,61.2
2023-03-20T03:36:15.467Z,55.8
2023-03-20T03:39:17.638Z,56.2
2023-03-20T03:42:14.068Z,59.9
2023-03-20T03:45:09.618Z,63.8
2023-03-20T03:48:00.153Z,62.4
2023-03-20T03:50:52.767Z,58.7
2023-03-20T03:53:45.040Z,61.2
2023-03-20T03:56:38.778Z,58.6
2023-03-20T03:59:31.233Z,61.5
2023-03-20T04:02:23.143Z,56.4
2023-03-20T04:05:12.137Z,62.6
2023-03-20T04:08:04.274Z,59.7
2023-03-20T04:10:52.403Z,58.3
2023-03-20T04:13:40.381Z,50.1
2023-03-20T04:16:29.168Z,50.4
2023-03-20T04:19:16.844Z,56.4
2023-03-20T04:22:04.492Z,56.3
2023-03-20T04:24:52.008Z,51.7
2023-03-20T04:27:39.809Z,56.2
2023-03-20T04:30:28.522Z,50.2
2023-03-20T04:33:16.233Z,53.8
2023-03-20T04:36:04.069Z,50.7
2023-03-20T04:38:55.192Z,50.3
2023-03-20T04:41:44.725Z,53.9
2023-03-20T04:44:32.539Z,51.1
2023-03-20T04:47:20.674Z,46.7
2023-03-20T04:50:08.186Z,45.5
2023-03-20T04:52:58.538Z,45.9
2023-03-20T04:55:46.335Z,48.6
2023-03-20T04:58:35.763Z,47.4
2023-03-20T05:01:23.582Z,48.7
2023-03-20T05:04:11.535Z,40.4
2023-03-20T05:06:59.216Z,43.3
2023-03-20T05:09:46.853Z,48.2
2023-03-20T05:12:34.554Z,44.2
2023-03-20T05:15:22.248Z,41.3
2023-03-20T05:18:10.194Z,45.3
2023-03-20T05:20:57.863Z,47.9
2023-03-20T05:23:46.041Z,54.4
2023-03-20T05:26:33.848Z,45.8
2023-03-20T05:29:21.552Z,49
2023-03-20T05:32:09.488Z,48.2
2023-03-20T05:34:57.459Z,50
2023-03-20T05:37:45.364Z,42.9
2023-03-20T05:40:32.995Z,42.8
2023-03-20T05:43:20.590Z,44.4
2023-03-20T05:46:08.308Z,40.8
2023-03-20T05:48:56.346Z,46.9
2023-03-20T05:51:44.294Z,47
2023-03-20T05:54:31.956Z,43.9
2023-03-20T05:57:19.436Z,45.6
2023-03-20T06:00:07.614Z,52.3
2023-03-20T06:02:56.636Z,54.7
2023-03-20T06:05:44.371Z,49.9
2023-03-20T06:08:31.881Z,46.4
2023-03-20T06:11:21.109Z,50.3
2023-03-20T06:14:08.838Z,49.3
2023-03-20T06:16:56.473Z,48.5
2023-03-20T06:19:45.365Z,45.7
2023-03-20T06:22:33.293Z,46
2023-03-20T06:25:21.065Z,47.3
2023-03-20T06:28:08.677Z,53.1
2023-03-20T06:30:56.783Z,51.4
2023-03-20T06:33:44.348Z,46.8
2023-03-20T06:36:32.240Z,47.8
2023-03-20T06:39:19.986Z,48.8
2023-03-20T06:42:07.669Z,49.6
2023-03-20T06:44:55.354Z,44.7
2023-03-20T06:47:42.944Z,45
2023-03-20T06:50:31.829Z,41.2
2023-03-20T06:53:19.512Z,48.5
2023-03-20T06:56:07.347Z,43.9
2023-03-20T06:58:57.451Z,44.4
2023-03-20T07:01:45.023Z,42.3
2023-03-20T07:04:32.737Z,39.5
2023-03-20T07:07:20.933Z,39.6
2023-03-20T07:10:09.045Z,42.2
2023-03-20T07:12:57.965Z,42
2023-03-20T07:16:03.120Z,39.5
2023-03-20T07:18:53.644Z,42.6
2023-03-20T07:21:41.508Z,43.5
2023-03-20T07:24:30.288Z,43.7
2023-03-20T07:27:18.505Z,36.4
2023-03-20T07:30:06.854Z,34.9
2023-03-20T07:32:57.961Z,36.8
2023-03-20T07:35:45.733Z,37.3
2023-03-20T07:38:38.468Z,43.2
2023-03-20T07:41:27.346Z,34.1
2023-03-20T07:44:15.737Z,38
2023-03-20T07:47:04.366Z,38.8
2023-03-20T07:49:52.384Z,40.6
2023-03-20T07:52:40.417Z,36.2
2023-03-20T07:55:32.373Z,33.9
2023-03-20T07:58:20.145Z,37.1
2023-03-20T08:01:07.719Z,35.6
2023-03-20T08:03:55.767Z,31
2023-03-20T08:06:43.485Z,31.8
2023-03-20T08:09:31.402Z,31.4
2023-03-20T08:12:19.430Z,30.7
2023-03-20T08:15:07.426Z,33.7
2023-03-20T08:17:56.258Z,30.5
2023-03-20T08:20:43.909Z,26.5
2023-03-20T08:23:31.884Z,31.9
2023-03-20T08:26:19.482Z,28.5
2023-03-20T08:29:07.801Z,35.2
2023-03-20T08:31:56.073Z,26.9
2023-03-20T08:34:43.680Z,25.5
2023-03-20T08:37:31.799Z,30
2023-03-20T08:40:20.195Z,26.4
2023-03-20T08:43:08.855Z,30.9
2023-03-20T08:45:56.743Z,30.4
2023-03-20T08:48:44.553Z,24.3
2023-03-20T08:51:32.203Z,27.1
2023-03-20T08:54:20.008Z,27.5
2023-03-20T08:57:08.036Z,27.1
2023-03-20T08:59:55.876Z,21.7
2023-03-20T09:02:43.634Z,25.7
2023-03-20T09:05:33.128Z,21.2
2023-03-20T09:08:22.556Z,24
2023-03-20T09:11:10.232Z,22.5
2023-03-20T09:13:57.890Z,24.7
2023-03-20T09:16:46.678Z,22.9
2023-03-20T09:19:35.121Z,21.4
2023-03-20T09:22:24.277Z,23.1
2023-03-20T09:25:12.027Z,20.7
2023-03-20T09:28:00.006Z,21.1
2023-03-20T09:30:48.110Z,21.3
2023-03-20T09:33:40.389Z,21.9
2023-03-20T09:36:29.763Z,19.8
2023-03-20T09:39:17.789Z,18.9
2023-03-20T09:42:05.458Z,23.3
2023-03-20T09:45:05.739Z,21.2
2023-03-20T09:47:59.296Z,20.2
2023-03-20T09:50:51.334Z,19.2
2023-03-20T09:53:48.050Z,20.5
2023-03-20T09:56:40.891Z,18.3
2023-03-20T09:59:29.927Z,18.7
2023-03-20T10:02:21.304Z,20.5
2023-03-20T10:05:20.347Z,19.5
2023-03-20T10:08:12.631Z,14.9
2023-03-20T10:11:03.836Z,16.2
2023-03-20T10:14:07.682Z,15.1
2023-03-20T10:17:08.205Z,16.1
2023-03-20T10:20:18.330Z,17.7
2023-03-20T10:23:13.871Z,18.2
2023-03-20T10:26:11.790Z,15.3
2023-03-20T10:29:03.687Z,15.8
2023-03-20T10:32:01.800Z,14.3
2023-03-20T10:34:55.783Z,18.2
2023-03-20T10:37:56.675Z,14.7
2023-03-20T10:40:58.202Z,15.6
2023-03-20T10:43:46.409Z,15.8
2023-03-20T10:46:37.306Z,16.2
2023-03-20T10:49:29.407Z,19.1
2023-03-20T10:52:23.726Z,17.1
2023-03-20T10:55:14.660Z,16.7
2023-03-20T10:58:05.855Z,17.1
2023-03-20T11:01:07.010Z,19.4
2023-03-20T11:03:54.881Z,17.3
2023-03-20T11:06:42.627Z,17.5
2023-03-20T11:09:38.291Z,17.6
2023-03-20T11:12:27.184Z,19
2023-03-20T11:15:18.837Z,17
2023-03-20T11:18:09.837Z,17.4
2023-03-20T11:21:00.562Z,17.6
2023-03-20T11:23:48.899Z,17.3
2023-03-20T11:26:37.837Z,17.6
2023-03-20T11:29:28.302Z,18.1
2023-03-20T11:32:19.882Z,19.5
2023-03-20T11:35:13.618Z,19.5
2023-03-20T11:38:08.400Z,18.2
2023-03-20T11:41:01.233Z,21.9
2023-03-20T11:43:50.734Z,19.9
2023-03-20T11:46:39.338Z,19.3
2023-03-20T11:49:28.257Z,17.7
2023-03-20T11:52:17.586Z,16.3
2023-03-20T11:55:09.621Z,18.4
2023-03-20T11:58:11.758Z,18.8
2023-03-20T12:01:02.272Z,15.6
2023-03-20T12:03:57.406Z,14.5
2023-03-20T12:06:49.669Z,11.5
2023-03-20T12:09:41.958Z,10.9
2023-03-20T12:12:34.256Z,10.1
2023-03-20T12:15:26.876Z,12.3
2023-03-20T12:18:18.526Z,13.3
2023-03-20T12:21:12.020Z,12.7
2023-03-20T12:24:07.833Z,9.9
2023-03-20T12:27:02.645Z,12.6
2023-03-20T12:30:03.054Z,10.2
2023-03-20T12:32:58.929Z,12.5
2023-03-20T12:35:53.266Z,12.5
2023-03-20T12:38:45.393Z,10.1
2023-03-20T12:41:32.996Z,11.3
2023-03-20T12:44:30.567Z,9
2023-03-20T12:47:26.418Z,8.9
2023-03-20T12:50:34.005Z,9.2
2023-03-20T12:53:25.917Z,9.3
2023-03-20T12:56:29.684Z,7.8
2023-03-20T12:59:34.401Z,7.4
2023-03-20T13:02:34.534Z,10.1
2023-03-20T13:05:38.696Z,8.9
2023-03-20T13:08:33.908Z,8.5
2023-03-20T13:11:45.798Z,6.8
2023-03-20T13:14:42.708Z,8.2
2023-03-20T13:17:38.090Z,8.9
2023-03-20T13:20:35.610Z,9.6
2023-03-20T13:23:34.241Z,10
2023-03-20T13:26:30.078Z,9.8
2023-03-20T13:29:27.636Z,10.1
2023-03-20T13:32:24.308Z,9.2
2023-03-20T13:35:20.737Z,11.5
2023-03-20T13:38:25.530Z,11.7
2023-03-20T13:41:19.101Z,13.1
2023-03-20T13:44:09.321Z,12.7
2023-03-20T13:47:00.497Z,13.3
2023-03-20T13:49:51.561Z,14
2023-03-20T13:52:45.316Z,11.6
2023-03-20T13:55:39.781Z,12.4
2023-03-20T13:58:37.143Z,13.1
2023-03-20T14:01:44.010Z,12.6
2023-03-20T14:04:39.678Z,15.1
2023-03-20T14:07:29.092Z,15.6
2023-03-20T14:10:19.391Z,14.6
2023-03-20T14:13:23.059Z,14.6
2023-03-20T14:16:10.775Z,13.2
2023-03-20T14:19:02.936Z,14.5
2023-03-20T14:21:54.533Z,15.8
2023-03-20T14:24:44.369Z,18.1
2023-03-20T14:27:44.772Z,13.9
2023-03-20T14:30:43.704Z,16.3
2023-03-20T14:33:33.823Z,17
2023-03-20T14:36:29.207Z,16.7
2023-03-20T14:39:31.060Z,16.7
2023-03-20T14:42:29.203Z,17.1
2023-03-20T14:45:25.682Z,17
2023-03-20T14:48:22.114Z,19.9
2023-03-20T14:51:16.952Z,19.8
2023-03-20T14:54:14.332Z,27
2023-03-20T14:57:12.249Z,23.9
2023-03-20T15:00:05.137Z,30.8
2023-03-20T15:03:03.870Z,28.9
2023-03-20T15:05:55.347Z,25.1
2023-03-20T15:08:47.065Z,29.4
2023-03-20T15:11:38.811Z,24.3
2023-03-20T15:14:29.318Z,19.7
2023-03-20T15:17:26.321Z,17.6
2023-03-20T15:20:21.140Z,18.9
2023-03-20T15:23:10.777Z,18.5
2023-03-20T15:25:59.139Z,17
2023-03-20T15:28:47.264Z,19.8
2023-03-20T15:31:35.054Z,21.4
2023-03-20T15:34:24.600Z,19.9
2023-03-20T15:37:16.612Z,16.8
2023-03-20T15:40:08.336Z,19.3
2023-03-20T15:43:06.616Z,18.8
2023-03-20T15:46:16.960Z,18.6
2023-03-20T15:49:11.971Z,21.2
2023-03-20T15:52:03.087Z,19.3
2023-03-20T15:54:55.650Z,19.2
2023-03-20T15:57:45.608Z,20.6
2023-03-20T16:00:35.401Z,17.1
2023-03-20T16:03:29.315Z,19.7
2023-03-20T16:06:17.457Z,20.9
2023-03-20T16:09:07.322Z,17.5
2023-03-20T16:11:59.073Z,19.2
2023-03-20T16:14:48.212Z,21.7
2023-03-20T16:17:36.944Z,20.4
2023-03-20T16:20:25.121Z,22.2
2023-03-20T16:23:18.520Z,16.8
2023-03-20T16:26:17.480Z,20.1
2023-03-20T16:29:07.843Z,19
2023-03-20T16:31:58.623Z,22.1
2023-03-20T16:34:50.045Z,22.2
2023-03-20T16:37:40.547Z,19
2023-03-20T16:40:33.625Z,21.1
2023-03-20T16:43:22.578Z,20.5
2023-03-20T16:46:15.567Z,21.4
2023-03-20T16:49:07.389Z,18.8
2023-03-20T16:52:55.629Z,21.9
2023-03-20T16:55:44.266Z,22.2
2023-03-20T16:58:34.281Z,22.4
2023-03-20T17:01:25.848Z,22.9
2023-03-20T17:04:14.282Z,22.9
2023-03-20T17:07:06.081Z,23.1
2023-03-20T17:10:00.196Z,23.7
2023-03-20T17:13:04.797Z,23.4
2023-03-20T17:15:53.710Z,21.4
2023-03-20T17:18:41.844Z,20.5
2023-03-20T17:21:30.801Z,22.9
2023-03-20T17:24:19.589Z,20.8
2023-03-20T17:27:07.280Z,20.2
2023-03-20T17:29:57.245Z,17.4
2023-03-20T17:32:46.002Z,22.8
2023-03-20T17:35:34.365Z,21.8
2023-03-20T17:38:22.359Z,25.4
2023-03-20T17:41:10.117Z,22.4
2023-03-20T17:44:00.277Z,20
2023-03-20T17:46:57.810Z,23.3
2023-03-20T17:49:47.152Z,20.6
2023-03-20T17:52:36.590Z,24
2023-03-20T17:55:24.286Z,22.1
2023-03-20T17:58:11.925Z,26.1
2023-03-20T18:01:01.214Z,21.4
2023-03-20T18:03:51.443Z,22.8
2023-03-20T18:06:39.592Z,21
2023-03-20T18:09:28.331Z,20.6
2023-03-20T18:12:16.142Z,18.4
2023-03-20T18:15:05.668Z,20.9
2023-03-20T18:17:54.994Z,16
2023-03-20T18:20:42.947Z,15.6
2023-03-20T18:23:31.776Z,14.3
2023-03-20T18:26:19.477Z,14.6
2023-03-20T18:29:09.179Z,17
2023-03-20T18:31:57.998Z,15.7
2023-03-20T18:34:45.636Z,18.3
2023-03-20T18:37:33.471Z,16.5
2023-03-20T18:40:21.083Z,15.2
2023-03-20T18:43:11.805Z,13.3
2023-03-20T18:45:59.720Z,17.4
2023-03-20T18:48:47.707Z,20.6
2023-03-20T18:51:37.129Z,16.6
2023-03-20T18:54:25.700Z,19.2
2023-03-20T18:57:13.298Z,19.1
2023-03-20T19:00:02.545Z,17.2
2023-03-20T19:03:02.141Z,16.3
2023-03-20T19:05:50.114Z,18.5
2023-03-20T19:08:39.931Z,19.6
2023-03-20T19:11:29.321Z,16.8
2023-03-20T19:14:17.070Z,18
2023-03-20T19:17:05.008Z,17.5
2023-03-20T19:19:55.450Z,18.8
2023-03-20T19:22:43.024Z,18.7
2023-03-20T19:25:30.811Z,19
2023-03-20T19:28:21.656Z,19.9
2023-03-20T19:31:13.346Z,16.7
2023-03-20T19:34:01.956Z,19.4
2023-03-20T19:36:49.782Z,16.2
2023-03-20T19:39:37.424Z,20.5
2023-03-20T19:42:52.922Z,16.9
2023-03-20T19:45:50.681Z,19
2023-03-20T19:48:50.006Z,20.1
2023-03-20T19:51:38.177Z,20.4
2023-03-20T19:54:28.467Z,19.3
2023-03-20T19:57:16.054Z,18.9
2023-03-20T20:03:23.558Z,16.9
2023-03-20T20:06:12.461Z,18.1
2023-03-20T20:09:00.672Z,18.8
2023-03-20T20:11:49.899Z,21
2023-03-20T20:14:37.783Z,17.6
2023-03-20T20:17:26.354Z,17.4
2023-03-20T20:20:14.264Z,19.4
2023-03-20T20:23:05.150Z,24
2023-03-20T20:25:55.322Z,20.6
2023-03-20T20:28:43.940Z,18.9
2023-03-20T20:31:31.609Z,18
2023-03-20T20:35:29.980Z,21.8
2023-03-20T20:38:48.873Z,22.3
2023-03-20T20:41:37.876Z,18
2023-03-20T20:44:26.551Z,20.7
2023-03-20T20:47:14.829Z,21.1
2023-03-20T20:50:03.321Z,20.7
2023-03-20T20:52:53.959Z,21.2
2023-03-20T20:55:42.725Z,19.1
2023-03-20T20:58:30.878Z,22.1
2023-03-20T21:01:18.710Z,22.9
2023-03-20T21:04:06.401Z,24.5
2023-03-20T21:07:09.257Z,22
2023-03-20T21:09:58.780Z,23.2
2023-03-20T21:12:58.423Z,19.9
2023-03-20T21:15:46.748Z,20.6
2023-03-20T21:18:43.060Z,22.5
2023-03-20T21:21:30.765Z,20.9
2023-03-20T21:24:32.215Z,24.5
2023-03-20T21:27:21.798Z,25.4
2023-03-20T21:30:10.372Z,19.1
2023-03-20T21:32:59.793Z,22.2
2023-03-20T21:35:48.216Z,20.8
2023-03-20T21:39:05.973Z,26.3
2023-03-20T21:41:55.067Z,29
2023-03-20T21:45:34.503Z,28.2
2023-03-20T21:49:43.088Z,21.8
2023-03-20T21:53:23.936Z,20.1
2023-03-20T21:56:59.905Z,22
2023-03-20T22:00:52.208Z,20.6
2023-03-20T22:05:18.821Z,19.2
2023-03-20T22:09:09.682Z,19.6
2023-03-20T22:13:08.015Z,23
2023-03-20T22:16:50.448Z,24.7
2023-03-20T22:24:05.444Z,21.2
2023-03-20T22:37:40.734Z,18.9
2023-03-20T22:41:47.506Z,23.6
2023-03-20T22:45:00.054Z,24
2023-03-20T22:47:50.903Z,23.3
2023-03-20T22:50:39.206Z,21.8
2023-03-20T22:53:27.824Z,20.2
2023-03-20T22:56:16.928Z,25.3
2023-03-20T22:59:04.914Z,22.3
2023-03-20T23:01:52.574Z,22.3
2023-03-20T23:04:40.551Z,24.4
2023-03-20T23:07:28.251Z,18
2023-03-20T23:10:15.948Z,20
2023-03-20T23:13:03.846Z,17.5
2023-03-20T23:15:52.171Z,18.7
2023-03-20T23:18:40.108Z,17.8
2023-03-20T23:21:29.087Z,16.6
2023-03-20T23:24:16.878Z,16.8
2023-03-20T23:27:05.095Z,19.4
2023-03-20T23:29:52.673Z,19.2
2023-03-20T23:32:40.517Z,19.4
2023-03-20T23:35:29.365Z,19.3
2023-03-20T23:38:17.611Z,18.9
2023-03-20T23:41:05.375Z,18.6
2023-03-20T23:43:54.724Z,15.8
2023-03-20T23:46:42.623Z,15.2
2023-03-20T23:49:30.509Z,15.3
2023-03-20T23:52:18.137Z,15.9
2023-03-20T23:55:05.739Z,18.1
2023-03-20T23:57:54.421Z,18.5
